Time;durP1;ratioP1;P1;durP2;ratioP2;P2;SDS_P1;SDS_P2;PMS_P1;PMS_P2;Temp;Humidity;BMP_temperature;BMP_pressure;BME280_temperature;BME280_humidity;BME280_pressure;Samples;Min_cycle;Max_cycle;Signal;HPM_P1;HPM_P2
2021/08/13 00:00:05;;;;;;;12.10;4.78;;;;;;;27.70;57.04;100883.00;5115236;28;20049;-69
2021/08/13 00:02:32;;;;;;;19.75;4.95;;;;;;;27.69;57.23;100878.53;5114280;28;20495;-69
2021/08/13 00:04:59;;;;;;;15.15;5.22;;;;;;;27.72;57.74;100881.09;5114535;27;20044;-69
2021/08/13 00:07:28;;;;;;;19.92;5.00;;;;;;;27.69;58.19;100871.28;5114566;27;20039;-69
2021/08/13 00:09:56;;;;;;;18.23;5.45;;;;;;;27.65;58.10;100869.69;5114655;27;20145;-69
2021/08/13 00:12:23;;;;;;;13.88;4.85;;;;;;;27.65;58.17;100879.66;5114651;28;20031;-69
2021/08/13 00:14:51;;;;;;;15.00;5.10;;;;;;;27.62;58.28;100883.44;5112107;28;20040;-69
2021/08/13 00:17:19;;;;;;;16.33;5.00;;;;;;;27.62;58.52;100875.28;5113068;28;20044;-69
2021/08/13 00:19:47;;;;;;;14.50;5.15;;;;;;;27.60;58.66;100873.59;5114569;27;20044;-68
2021/08/13 00:22:14;;;;;;;13.80;5.32;;;;;;;27.59;58.60;100871.84;5114904;27;20391;-69
2021/08/13 00:24:43;;;;;;;10.88;4.93;;;;;;;27.61;58.59;100872.66;5114676;28;20035;-69
2021/08/13 00:27:10;;;;;;;13.77;5.32;;;;;;;27.57;58.50;100877.34;5113536;27;20044;-69
2021/08/13 00:29:38;;;;;;;16.25;5.50;;;;;;;27.58;58.39;100881.81;5113455;27;20040;-69
2021/08/13 00:32:05;;;;;;;12.95;4.70;;;;;;;27.58;58.26;100880.94;5113805;27;20059;-69
2021/08/13 00:34:33;;;;;;;11.70;4.00;;;;;;;27.55;58.61;100876.56;5113744;28;20034;-69
2021/08/13 00:37:00;;;;;;;14.88;5.20;;;;;;;27.51;58.41;100876.75;5112647;28;20039;-68
2021/08/13 00:39:28;;;;;;;11.88;4.70;;;;;;;27.51;58.50;100872.22;5113721;28;20038;-69
2021/08/13 00:41:56;;;;;;;11.73;4.90;;;;;;;27.52;58.33;100881.25;5114119;28;20051;-69
2021/08/13 00:44:24;;;;;;;13.75;4.85;;;;;;;27.50;58.32;100873.19;5113570;28;20418;-69
2021/08/13 00:47:11;;;;;;;15.95;5.75;;;;;;;27.50;58.38;100884.03;5102560;28;20046;-69
2021/08/13 00:49:39;;;;;;;19.83;5.53;;;;;;;27.49;58.46;100882.28;5113690;28;20395;-69
2021/08/13 00:52:06;;;;;;;17.33;5.28;;;;;;;27.46;58.57;100879.72;5113565;28;20043;-68
2021/08/13 00:54:34;;;;;;;19.42;5.60;;;;;;;27.42;58.93;100872.72;5113715;28;20524;-69
2021/08/13 00:57:03;;;;;;;14.82;5.72;;;;;;;27.43;58.85;100876.31;5112967;28;20047;-69
2021/08/13 00:59:30;;;;;;;15.30;5.05;;;;;;;27.44;58.85;100869.94;5112856;27;20040;-69
2021/08/13 01:01:58;;;;;;;11.07;4.65;;;;;;;27.45;58.65;100868.94;5112810;28;20040;-69
2021/08/13 01:04:25;;;;;;;13.05;4.78;;;;;;;27.42;58.62;100864.56;5113334;27;20390;-69
2021/08/13 01:07:13;;;;;;;15.80;5.57;;;;;;;27.38;59.02;100860.25;5109002;28;20495;-69
2021/08/13 01:09:42;;;;;;;14.82;5.15;;;;;;;27.36;58.91;100867.59;5113754;28;20039;-69
2021/08/13 01:12:23;;;;;;;17.02;5.88;;;;;;;27.35;58.97;100864.03;5111277;27;20035;-69
2021/08/13 01:15:02;;;;;;;16.73;5.38;;;;;;;27.31;59.25;100854.28;5112598;28;20039;-69
2021/08/13 01:17:35;;;;;;;12.77;4.95;;;;;;;27.31;59.08;100856.09;5113401;27;20036;-68
2021/08/13 01:20:09;;;;;;;15.00;4.68;;;;;;;27.31;58.78;100856.97;5112707;27;20032;-69
2021/08/13 01:22:43;;;;;;;18.73;5.68;;;;;;;27.26;59.21;100855.47;5113333;28;20552;-69
2021/08/13 01:25:13;;;;;;;11.85;5.07;;;;;;;27.18;59.20;100844.13;5113524;28;20044;-69
2021/08/13 01:27:45;;;;;;;16.33;5.20;;;;;;;27.22;59.21;100851.19;5112653;28;20055;-69
2021/08/13 01:30:16;;;;;;;16.35;5.43;;;;;;;27.24;58.92;100843.84;5109646;28;20058;-69
2021/08/13 01:32:50;;;;;;;12.60;5.47;;;;;;;27.22;59.18;100849.34;5112576;28;20036;-69
2021/08/13 01:35:20;;;;;;;16.50;4.50;;;;;;;27.15;59.17;100841.59;5112356;27;20044;-68
2021/08/13 01:37:52;;;;;;;13.38;5.07;;;;;;;27.15;59.48;100836.19;5112578;28;20036;-68
2021/08/13 01:40:23;;;;;;;14.40;4.95;;;;;;;27.17;59.13;100837.00;5112994;27;20425;-69
2021/08/13 01:43:01;;;;;;;13.65;5.35;;;;;;;27.15;59.31;100844.31;5112115;27;20046;-69
2021/08/13 01:45:32;;;;;;;17.70;5.57;;;;;;;27.12;59.15;100842.63;5112896;28;20051;-69
2021/08/13 01:48:02;;;;;;;14.52;4.80;;;;;;;27.11;59.31;100851.72;5112714;28;20395;-68
2021/08/13 01:50:30;;;;;;;15.30;5.30;;;;;;;27.08;59.19;100846.47;5112792;28;20039;-68
2021/08/13 01:53:00;;;;;;;11.75;5.40;;;;;;;27.08;59.06;100848.28;5112269;28;20056;-68
2021/08/13 01:55:28;;;;;;;14.45;5.60;;;;;;;27.04;59.37;100850.31;5111313;28;20414;-68
2021/08/13 01:57:56;;;;;;;11.15;4.75;;;;;;;27.04;59.49;100854.84;5112854;28;20047;-69
2021/08/13 02:00:26;;;;;;;14.02;5.88;;;;;;;27.08;59.22;100851.00;5112421;28;20038;-69
2021/08/13 02:02:54;;;;;;;15.10;5.65;;;;;;;27.04;59.13;100846.72;5112563;27;20040;-68
2021/08/13 02:05:25;;;;;;;12.80;4.57;;;;;;;27.03;59.13;100851.25;5112207;27;20501;-68
2021/08/13 02:07:55;;;;;;;13.52;5.57;;;;;;;27.02;59.02;100837.78;5112391;28;20048;-68
2021/08/13 02:10:23;;;;;;;13.35;4.22;;;;;;;27.05;58.80;100845.72;5112437;28;20043;-68
2021/08/13 02:12:50;;;;;;;15.25;5.30;;;;;;;27.05;58.53;100829.47;5107891;27;20043;-68
2021/08/13 02:15:18;;;;;;;13.73;4.70;;;;;;;27.07;58.28;100830.28;5112128;28;20039;-67
2021/08/13 02:17:53;;;;;;;12.15;4.82;;;;;;;27.07;57.89;100832.97;5109991;28;20039;-66
2021/08/13 02:20:25;;;;;;;11.35;4.80;;;;;;;27.07;57.62;100827.56;5112603;28;20036;-68
2021/08/13 02:22:53;;;;;;;14.98;4.68;;;;;;;27.05;57.59;100835.75;5112103;28;20043;-69
2021/08/13 02:25:20;;;;;;;14.43;4.90;;;;;;;27.04;57.76;100833.16;5112045;28;20036;-68
2021/08/13 02:27:48;;;;;;;19.77;5.25;;;;;;;27.05;57.63;100835.75;5112363;28;20047;-68
2021/08/13 02:30:15;;;;;;;16.20;4.78;;;;;;;27.06;57.71;100836.66;5111737;28;20048;-66
2021/08/13 02:32:42;;;;;;;18.23;5.00;;;;;;;27.05;57.38;100841.19;5109846;28;20033;-69
2021/08/13 02:35:11;;;;;;;14.35;4.95;;;;;;;27.04;57.43;100838.59;5112179;28;20050;-68
2021/08/13 02:37:46;;;;;;;16.63;5.05;;;;;;;27.00;57.81;100845.09;5112212;28;20036;-68
2021/08/13 02:40:17;;;;;;;17.05;5.10;;;;;;;26.98;57.78;100844.31;5111288;28;20043;-68
2021/08/13 02:42:50;;;;;;;13.00;4.82;;;;;;;26.98;57.59;100840.63;5110652;28;20051;-68
2021/08/13 02:45:21;;;;;;;15.68;5.60;;;;;;;26.98;57.43;100845.16;5110466;28;20039;-67
2021/08/13 02:47:54;;;;;;;18.00;5.60;;;;;;;26.98;57.48;100849.72;5110917;28;20047;-68
2021/08/13 02:50:24;;;;;;;14.18;4.82;;;;;;;26.91;57.86;100850.03;5111185;28;20031;-68
2021/08/13 02:52:56;;;;;;;12.68;5.07;;;;;;;26.89;57.87;100857.38;5110601;28;20039;-68
2021/08/13 02:55:31;;;;;;;14.60;4.72;;;;;;;26.92;57.61;100850.91;5111074;28;20444;-68
2021/08/13 02:58:01;;;;;;;12.20;4.50;;;;;;;26.91;57.69;100855.44;5110855;28;20046;-68
2021/08/13 03:00:29;;;;;;;15.73;5.30;;;;;;;26.92;57.79;100857.19;5111041;28;20502;-67
2021/08/13 03:02:58;;;;;;;14.57;5.80;;;;;;;26.87;57.66;100853.81;5110087;28;20051;-68
2021/08/13 03:05:32;;;;;;;19.27;5.45;;;;;;;26.83;57.73;100852.22;5110623;28;20032;-69
2021/08/13 03:08:02;;;;;;;13.80;5.22;;;;;;;26.81;57.86;100854.13;5110668;28;20511;-69
2021/08/13 03:10:30;;;;;;;17.02;4.80;;;;;;;26.80;57.75;100851.47;5110984;28;20031;-68
2021/08/13 03:12:58;;;;;;;13.35;5.18;;;;;;;26.78;57.41;100861.53;5111003;28;20032;-68
2021/08/13 03:15:26;;;;;;;12.05;5.00;;;;;;;26.79;57.41;100861.44;5111079;28;20039;-69
2021/08/13 03:17:55;;;;;;;12.75;5.07;;;;;;;26.81;57.45;100867.69;5111021;28;20036;-68
2021/08/13 03:20:43;;;;;;;15.65;4.80;;;;;;;26.71;57.51;100863.69;5100404;28;20051;-69
2021/08/13 03:23:12;;;;;;;12.82;4.35;;;;;;;26.69;57.38;100870.13;5111443;28;20043;-68
2021/08/13 03:25:41;;;;;;;14.55;4.45;;;;;;;26.66;57.65;100876.56;5111060;28;20044;-68
2021/08/13 03:28:08;;;;;;;15.48;4.75;;;;;;;26.58;57.77;100871.50;5110984;28;20062;-68
2021/08/13 03:30:43;;;;;;;16.70;5.07;;;;;;;26.65;57.56;100882.91;5111022;28;20055;-68
2021/08/13 03:33:13;;;;;;;13.90;4.80;;;;;;;26.60;57.43;100884.97;5110606;28;20040;-68
2021/08/13 03:35:41;;;;;;;13.45;4.45;;;;;;;26.52;57.80;100889.88;5110683;28;20047;-69
2021/08/13 03:38:09;;;;;;;12.77;5.00;;;;;;;26.50;57.70;100886.41;5110246;28;20044;-68
2021/08/13 03:40:38;;;;;;;10.48;4.60;;;;;;;26.51;57.91;100896.28;5110745;28;20055;-68
2021/08/13 03:43:05;;;;;;;14.07;4.97;;;;;;;26.50;57.71;100891.81;5108934;28;20043;-68
2021/08/13 03:45:32;;;;;;;16.33;4.78;;;;;;;26.53;57.77;100891.63;5110574;28;20039;-68
2021/08/13 03:48:00;;;;;;;20.90;4.38;;;;;;;26.62;57.66;100891.22;5111085;28;20482;-68
2021/08/13 03:50:47;;;;;;;15.95;5.70;;;;;;;26.65;57.32;100884.78;5102941;28;20083;-66
2021/08/13 03:53:14;;;;;;;17.95;5.63;;;;;;;26.74;57.10;100887.91;5114962;28;20040;-68
2021/08/13 03:55:44;;;;;;;16.38;4.78;;;;;;;26.85;56.98;100887.34;5114782;28;20047;-69
2021/08/13 03:58:11;;;;;;;17.63;4.95;;;;;;;26.86;57.12;100887.28;5114528;27;20043;-68
2021/08/13 04:00:39;;;;;;;16.73;4.80;;;;;;;26.87;56.81;100885.44;5114274;27;20040;-68
2021/08/13 04:03:06;;;;;;;10.00;5.00;;;;;;;26.87;56.91;100885.44;5114318;28;20039;-68
2021/08/13 04:05:54;;;;;;;12.65;5.20;;;;;;;26.98;56.99;100878.56;5113961;27;20092;-69
2021/08/13 04:08:22;;;;;;;13.60;4.65;;;;;;;27.08;56.89;100889.84;5114586;28;20066;-67
2021/08/13 04:10:51;;;;;;;15.88;4.93;;;;;;;27.16;56.56;100889.44;5114731;27;20031;-69
2021/08/13 04:13:19;;;;;;;11.98;4.43;;;;;;;27.24;56.31;100884.53;5114451;27;20031;-67
2021/08/13 04:15:46;;;;;;;11.63;4.43;;;;;;;27.37;56.06;100889.19;5115197;28;20050;-68
2021/08/13 04:18:13;;;;;;;13.48;5.05;;;;;;;27.52;55.56;100892.09;5114728;27;20039;-69
2021/08/13 04:20:41;;;;;;;11.95;5.22;;;;;;;27.67;55.14;100886.75;5113550;27;20047;-68
2021/08/13 04:23:08;;;;;;;9.75;4.28;;;;;;;27.79;54.71;100887.94;5113934;27;20044;-69
2021/08/13 04:25:35;;;;;;;17.63;4.70;;;;;;;27.97;54.34;100888.78;5113784;27;20044;-69
2021/08/13 04:28:05;;;;;;;13.65;4.22;;;;;;;28.13;54.11;100896.00;5113378;27;20043;-68
2021/08/13 04:30:32;;;;;;;10.85;3.95;;;;;;;28.17;54.12;100885.88;5111320;28;20032;-68
2021/08/13 04:32:59;;;;;;;15.00;4.30;;;;;;;28.29;54.00;100898.75;5113703;27;20044;-69
2021/08/13 04:35:27;;;;;;;16.40;5.40;;;;;;;28.46;53.56;100897.84;5113540;28;20486;-68
2021/08/13 04:37:54;;;;;;;15.50;4.00;;;;;;;28.62;53.43;100895.97;5113128;27;20043;-69
2021/08/13 04:40:22;;;;;;;17.30;4.07;;;;;;;28.79;53.18;100903.22;5113701;27;20032;-68
2021/08/13 04:42:49;;;;;;;14.40;4.07;;;;;;;28.88;52.80;100897.25;5113082;27;20035;-68
2021/08/13 04:45:18;;;;;;;16.80;4.22;;;;;;;29.03;52.58;100903.63;5113895;28;20039;-69
2021/08/13 04:47:46;;;;;;;13.75;4.60;;;;;;;29.14;52.53;100898.44;5113480;27;20050;-69
2021/08/13 04:50:13;;;;;;;12.52;4.20;;;;;;;29.35;52.19;100905.34;5113404;28;20043;-68
2021/08/13 04:52:44;;;;;;;11.98;4.15;;;;;;;29.52;51.61;100904.34;5113557;28;20047;-69
2021/08/13 04:55:13;;;;;;;12.52;3.88;;;;;;;29.71;51.36;100904.97;5117829;27;20039;-69
2021/08/13 04:57:41;;;;;;;11.15;3.97;;;;;;;29.83;50.85;100911.47;5113654;27;20032;-68
2021/08/13 05:00:08;;;;;;;15.80;4.55;;;;;;;30.00;50.56;100908.59;5110466;27;20392;-69
2021/08/13 05:02:37;;;;;;;12.82;3.42;;;;;;;30.18;49.84;100906.59;5111817;28;20055;-69
2021/08/13 05:05:05;;;;;;;10.32;4.00;;;;;;;30.36;49.51;100910.84;5113093;27;20032;-69
2021/08/13 05:07:34;;;;;;;12.00;3.63;;;;;;;30.46;49.34;100912.88;5112976;28;20066;-69
2021/08/13 05:10:07;;;;;;;12.70;3.83;;;;;;;30.60;48.92;100909.28;5111224;28;20127;-69
2021/08/13 05:12:35;;;;;;;14.43;3.92;;;;;;;30.71;48.81;100914.06;5112642;28;20046;-69
2021/08/13 05:15:02;;;;;;;11.20;3.50;;;;;;;30.82;48.41;100909.63;5112414;27;20046;-69
2021/08/13 05:17:29;;;;;;;10.23;3.80;;;;;;;30.93;48.12;100906.19;5112711;28;20043;-69
2021/08/13 05:19:58;;;;;;;9.85;4.03;;;;;;;31.10;47.38;100905.97;5112255;28;20036;-69
2021/08/13 05:22:25;;;;;;;12.65;5.07;;;;;;;31.29;46.84;100911.06;5112238;27;20040;-68
2021/08/13 05:24:53;;;;;;;13.48;3.70;;;;;;;31.46;46.11;100910.75;5112406;28;20031;-69
2021/08/13 05:27:20;;;;;;;11.55;3.45;;;;;;;31.73;45.86;100902.53;5111729;27;20399;-68
2021/08/13 05:29:47;;;;;;;11.98;3.38;;;;;;;31.94;44.87;100913.81;5111685;28;20046;-66
2021/08/13 05:32:15;;;;;;;11.40;3.15;;;;;;;32.11;44.49;100902.53;5112904;27;20035;-69
2021/08/13 05:34:42;;;;;;;8.10;3.83;;;;;;;32.27;44.09;100914.16;5113116;28;20044;-69
2021/08/13 05:37:11;;;;;;;11.38;3.80;;;;;;;32.42;43.64;100904.84;5110526;28;20050;-69
2021/08/13 05:39:38;;;;;;;13.77;4.13;;;;;;;32.64;43.40;100905.97;5112278;28;20080;-69
2021/08/13 05:42:06;;;;;;;9.65;3.63;;;;;;;32.86;42.81;100906.16;5112046;28;20352;-69
2021/08/13 05:44:33;;;;;;;12.93;3.88;;;;;;;33.08;42.34;100908.16;5112043;28;20050;-68
2021/08/13 05:47:01;;;;;;;9.70;3.60;;;;;;;33.34;42.04;100920.75;5111022;28;20039;-69
2021/08/13 05:49:35;;;;;;;8.88;3.35;;;;;;;33.58;41.33;100921.59;5111827;27;20031;-70
2021/08/13 05:52:02;;;;;;;14.20;4.07;;;;;;;33.69;41.43;100918.00;5112891;27;20427;-70
2021/08/13 05:54:31;;;;;;;10.25;3.55;;;;;;;33.81;40.91;100921.66;5112451;28;20032;-70
2021/08/13 05:56:59;;;;;;;9.02;3.40;;;;;;;33.99;40.28;100912.88;5112703;28;20044;-69
2021/08/13 05:59:26;;;;;;;11.05;3.08;;;;;;;34.23;39.81;100921.03;5111941;28;20051;-69
2021/08/13 06:01:53;;;;;;;12.57;3.28;;;;;;;34.22;39.83;100908.31;5112006;27;20039;-68
2021/08/13 06:04:21;;;;;;;8.82;3.83;;;;;;;34.34;39.64;100925.63;5110985;27;20032;-69
2021/08/13 06:06:48;;;;;;;9.63;3.65;;;;;;;34.48;39.18;100908.03;5111758;28;20048;-67
2021/08/13 06:09:16;;;;;;;10.30;3.63;;;;;;;34.61;38.79;100926.13;5112306;28;20046;-69
2021/08/13 06:11:45;;;;;;;10.43;3.28;;;;;;;34.74;38.24;100926.00;5112611;28;20042;-69
2021/08/13 06:14:12;;;;;;;12.13;3.72;;;;;;;34.85;37.99;100933.38;5112168;28;20035;-69
2021/08/13 06:16:40;;;;;;;15.23;3.47;;;;;;;35.06;37.66;100937.03;5112570;28;20044;-69
2021/08/13 06:19:21;;;;;;;10.30;3.72;;;;;;;35.12;37.64;100926.41;5111899;28;20130;-69
2021/08/13 06:21:48;;;;;;;11.40;3.80;;;;;;;35.09;37.69;100931.31;5112289;28;20399;-68
2021/08/13 06:24:15;;;;;;;9.20;3.60;;;;;;;35.15;37.59;100930.78;5108244;27;20049;-70
2021/08/13 06:26:44;;;;;;;10.38;3.45;;;;;;;35.24;37.38;100945.66;5112447;28;20039;-70
2021/08/13 06:29:11;;;;;;;13.57;4.22;;;;;;;35.34;37.35;100941.97;5109824;28;20054;-70
2021/08/13 06:31:39;;;;;;;9.70;3.55;;;;;;;35.51;37.28;100948.78;5112334;28;20506;-69
2021/08/13 06:34:06;;;;;;;11.20;3.25;;;;;;;35.53;37.27;100944.88;5111888;28;20047;-69
2021/08/13 06:36:33;;;;;;;13.60;3.45;;;;;;;35.65;37.38;100950.31;5111931;28;20028;-70
2021/08/13 06:39:00;;;;;;;10.77;3.95;;;;;;;35.62;36.93;100947.84;5111393;27;20044;-69
2021/08/13 06:41:28;;;;;;;7.90;3.42;;;;;;;35.58;36.98;100949.13;5111659;28;20054;-69
2021/08/13 06:43:56;;;;;;;8.18;3.35;;;;;;;35.60;37.09;100960.84;5111964;28;20043;-70
2021/08/13 06:46:24;;;;;;;9.30;3.55;;;;;;;35.58;37.41;100959.09;5111755;28;20043;-69
2021/08/13 06:48:52;;;;;;;12.98;3.70;;;;;;;35.64;37.23;100965.09;5111797;28;20403;-69
2021/08/13 06:51:20;;;;;;;9.98;3.53;;;;;;;35.58;37.82;100970.09;5111877;28;20118;-69
2021/08/13 06:53:47;;;;;;;14.25;4.30;;;;;;;35.69;37.77;100979.28;5109756;28;20528;-70
2021/08/13 06:56:15;;;;;;;11.15;3.25;;;;;;;35.71;37.96;100966.34;5112119;28;20050;-69
2021/08/13 06:58:42;;;;;;;12.10;3.40;;;;;;;35.54;38.19;100976.84;5110267;28;20506;-70
2021/08/13 07:01:11;;;;;;;13.23;3.60;;;;;;;35.60;38.70;100985.56;5111512;28;20048;-70
2021/08/13 07:03:38;;;;;;;14.02;4.45;;;;;;;35.63;38.49;100982.56;5111622;28;20054;-70
2021/08/13 07:06:05;;;;;;;13.63;4.07;;;;;;;35.66;38.52;100976.78;5111760;28;20046;-69
2021/08/13 07:08:33;;;;;;;14.10;4.05;;;;;;;35.76;38.37;100973.19;5110196;28;20372;-69
2021/08/13 07:11:04;;;;;;;9.95;3.30;;;;;;;35.85;38.28;100985.22;5111240;28;20048;-70
2021/08/13 07:13:32;;;;;;;11.10;4.00;;;;;;;35.93;37.72;100986.31;5111761;28;20043;-70
2021/08/13 07:15:59;;;;;;;12.63;3.90;;;;;;;36.15;37.85;100978.94;5111287;28;20044;-70
2021/08/13 07:18:28;;;;;;;8.80;3.42;;;;;;;36.17;37.00;100986.06;5111416;28;20035;-70
2021/08/13 07:20:57;;;;;;;10.65;3.45;;;;;;;36.18;36.96;100996.06;5111471;28;20036;-70
2021/08/13 07:23:24;;;;;;;12.05;3.88;;;;;;;36.26;36.66;100974.25;5111325;28;20471;-70
2021/08/13 07:25:52;;;;;;;16.25;4.22;;;;;;;36.24;36.34;100984.50;5110063;28;20043;-69
2021/08/13 07:28:19;;;;;;;9.43;3.47;;;;;;;36.43;36.11;101000.25;5115502;27;20046;-69
2021/08/13 07:30:56;;;;;;;10.00;3.75;;;;;;;36.55;35.52;100990.06;5114402;27;20039;-70
2021/08/13 07:33:24;;;;;;;10.93;3.60;;;;;;;36.59;35.06;100997.88;5114820;28;20130;-70
2021/08/13 07:35:53;;;;;;;9.25;3.45;;;;;;;36.55;35.60;101004.69;5112591;27;20035;-69
2021/08/13 07:38:20;;;;;;;9.85;3.60;;;;;;;36.57;35.18;101001.78;5115091;27;20529;-70
2021/08/13 07:40:47;;;;;;;12.88;4.10;;;;;;;36.50;35.42;101006.94;5115405;27;20039;-70
2021/08/13 07:43:15;;;;;;;9.60;3.63;;;;;;;36.54;35.58;100988.31;5115060;28;20049;-71
2021/08/13 07:45:42;;;;;;;12.00;3.75;;;;;;;36.58;34.78;101009.88;5114621;28;20142;-70
2021/08/13 07:48:10;;;;;;;12.02;3.30;;;;;;;36.70;34.88;101014.31;5114796;28;20463;-70
2021/08/13 07:50:37;;;;;;;10.80;3.92;;;;;;;36.92;34.78;101005.00;5114922;28;20036;-70
2021/08/13 07:53:06;;;;;;;9.02;3.80;;;;;;;37.07;34.58;101008.25;5114288;28;20044;-70
2021/08/13 07:55:33;;;;;;;14.95;3.78;;;;;;;37.06;34.54;101018.38;5114714;28;20031;-70
2021/08/13 07:58:01;;;;;;;11.05;3.55;;;;;;;37.15;34.16;101016.72;5113273;28;20054;-70
2021/08/13 08:00:29;;;;;;;9.20;3.80;;;;;;;37.11;34.12;101018.84;5114632;28;20047;-71
2021/08/13 08:02:56;;;;;;;9.48;3.67;;;;;;;37.04;34.46;101012.13;5113503;28;20502;-70
2021/08/13 08:05:34;;;;;;;11.95;4.07;;;;;;;37.11;34.35;101016.09;5113605;27;20057;-70
2021/08/13 08:08:02;;;;;;;11.65;3.92;;;;;;;37.38;34.00;101020.94;5113751;27;20043;-69
2021/08/13 08:10:31;;;;;;;9.38;3.90;;;;;;;37.59;33.52;101020.88;5113598;27;20039;-69
2021/08/13 08:12:59;;;;;;;8.73;3.78;;;;;;;37.61;33.10;101027.13;5113678;27;20036;-70
2021/08/13 08:15:27;;;;;;;14.55;3.85;;;;;;;37.43;33.03;101026.91;5113714;27;20352;-69
2021/08/13 08:17:54;;;;;;;9.43;3.60;;;;;;;37.27;32.84;101023.84;5113982;28;20086;-69
2021/08/13 08:20:23;;;;;;;11.32;3.58;;;;;;;37.31;33.19;101032.69;5113965;27;20031;-68
2021/08/13 08:22:50;;;;;;;8.45;3.47;;;;;;;37.41;32.98;101028.06;5113797;28;20051;-68
2021/08/13 08:25:17;;;;;;;10.43;3.67;;;;;;;37.46;33.24;101025.75;5114514;27;20040;-68
2021/08/13 08:28:07;;;;;;;10.18;3.78;;;;;;;37.40;33.13;101037.34;5111908;28;20040;-69
2021/08/13 08:30:34;;;;;;;13.82;3.30;;;;;;;37.54;32.85;101034.19;5113493;27;20032;-69
2021/08/13 08:33:01;;;;;;;11.85;3.55;;;;;;;37.65;32.49;101028.56;5113366;28;20100;-69
2021/08/13 08:35:29;;;;;;;11.35;3.35;;;;;;;37.85;32.37;101033.06;5113637;27;20039;-70
2021/08/13 08:37:59;;;;;;;16.08;4.00;;;;;;;38.01;31.92;101040.72;5112553;28;20144;-70
2021/08/13 08:40:28;;;;;;;13.10;6.95;;;;;;;38.13;31.76;101027.72;5113205;28;20039;-70
2021/08/13 08:43:09;;;;;;;12.32;5.53;;;;;;;38.30;31.35;101029.69;5113086;28;20040;-70
2021/08/13 08:45:39;;;;;;;8.80;4.20;;;;;;;38.49;31.56;101023.28;5113318;28;20054;-70
2021/08/13 08:48:08;;;;;;;13.05;4.50;;;;;;;38.59;31.34;101030.53;5111928;28;20059;-69
2021/08/13 08:50:38;;;;;;;10.50;4.28;;;;;;;38.66;30.94;101031.63;5113607;27;20040;-72
2021/08/13 08:53:09;;;;;;;10.32;3.88;;;;;;;38.61;30.71;101028.47;5111779;28;20043;-71
2021/08/13 08:55:38;;;;;;;10.65;3.55;;;;;;;38.55;30.74;101028.19;5113167;28;20047;-72
2021/08/13 08:58:08;;;;;;;7.85;3.20;;;;;;;38.60;30.30;101026.72;5113123;27;20036;-72
2021/08/13 09:00:35;;;;;;;10.50;3.83;;;;;;;38.60;30.15;101031.38;5113130;27;20032;-72
2021/08/13 09:03:03;;;;;;;9.05;3.70;;;;;;;38.70;29.85;101029.47;5113342;28;20043;-72
2021/08/13 09:05:31;;;;;;;10.18;3.47;;;;;;;38.72;29.27;101027.44;5113530;28;20031;-72
2021/08/13 09:08:19;;;;;;;10.60;3.80;;;;;;;38.46;29.39;101037.38;5107018;28;20044;-72
2021/08/13 09:10:47;;;;;;;8.60;3.80;;;;;;;38.40;29.31;101032.44;5113383;28;20054;-72
2021/08/13 09:13:22;;;;;;;11.45;4.22;;;;;;;38.65;29.23;101032.69;5113221;28;20044;-72
2021/08/13 09:15:51;;;;;;;11.77;3.78;;;;;;;38.66;29.06;101039.91;5111779;28;20092;-69
2021/08/13 09:18:21;;;;;;;11.75;4.03;;;;;;;38.64;28.87;101041.13;5113458;27;20364;-72
2021/08/13 09:20:51;;;;;;;7.60;3.20;;;;;;;38.47;29.23;101048.22;5113052;28;20043;-70
2021/08/13 09:23:32;;;;;;;9.88;3.67;;;;;;;38.26;29.24;101020.00;5111318;28;20067;-71
2021/08/13 09:26:02;;;;;;;10.23;4.25;;;;;;;38.25;29.43;101030.16;5112713;28;20048;-71
2021/08/13 09:28:47;;;;;;;10.43;4.20;;;;;;;38.39;29.37;101036.22;5112614;27;20110;-72
2021/08/13 09:31:21;;;;;;;10.18;4.30;;;;;;;38.42;29.33;101020.22;5110138;28;20476;-74
2021/08/13 09:33:49;;;;;;;12.40;4.18;;;;;;;38.31;29.22;101027.81;5112970;28;20514;-71
2021/08/13 09:36:19;;;;;;;11.20;3.75;;;;;;;38.51;29.15;101030.41;5112713;28;20069;-72
2021/08/13 09:38:48;;;;;;;9.95;3.60;;;;;;;38.50;28.92;101030.56;5112880;28;20046;-72
2021/08/13 09:41:18;;;;;;;14.70;4.40;;;;;;;38.50;28.89;101031.41;5112823;27;20047;-73
2021/08/13 09:44:01;;;;;;;11.52;4.07;;;;;;;38.51;28.27;101032.28;5112461;27;20039;-71
2021/08/13 09:46:30;;;;;;;12.35;3.75;;;;;;;38.34;28.29;101024.72;5112910;28;20040;-71
2021/08/13 09:49:18;;;;;;;10.85;4.18;;;;;;;38.32;27.90;101038.69;5108047;28;20044;-72
2021/08/13 09:51:45;;;;;;;11.70;4.22;;;;;;;38.26;28.25;101020.00;5112683;28;20036;-72
2021/08/13 09:54:13;;;;;;;9.10;3.35;;;;;;;38.11;28.13;101038.00;5108079;28;20035;-71
2021/08/13 09:56:41;;;;;;;9.50;3.88;;;;;;;38.13;28.10;101038.75;5106958;27;20598;-71
2021/08/13 09:59:15;;;;;;;9.98;3.72;;;;;;;37.97;28.44;101030.13;5112673;27;20054;-71
2021/08/13 10:01:45;;;;;;;8.68;4.10;;;;;;;37.85;28.23;101024.78;5110756;28;20483;-71
2021/08/13 10:04:14;;;;;;;8.02;3.97;;;;;;;37.67;28.69;101032.06;5112209;28;20047;-70
2021/08/13 10:06:42;;;;;;;8.55;3.80;;;;;;;37.68;28.80;101031.00;5111976;27;20044;-71
2021/08/13 10:09:23;;;;;;;13.63;4.50;;;;;;;37.86;28.84;101032.06;5112634;28;20494;-70
2021/08/13 10:11:58;;;;;;;9.07;4.03;;;;;;;38.01;28.46;101029.69;5112798;28;20089;-69
2021/08/13 10:14:32;;;;;;;9.63;4.05;;;;;;;37.93;28.32;101029.59;5111557;28;20031;-74
2021/08/13 10:17:14;;;;;;;11.35;4.07;;;;;;;37.64;28.82;101031.44;5112398;28;20439;-73
2021/08/13 10:20:02;;;;;;;12.25;4.25;;;;;;;37.50;30.03;101033.59;5108586;28;20051;-72
2021/08/13 10:22:30;;;;;;;11.13;4.30;;;;;;;37.55;30.16;101040.56;5111880;28;20482;-74
2021/08/13 10:24:58;;;;;;;9.45;3.67;;;;;;;37.51;30.18;101031.69;5111865;28;20038;-73
2021/08/13 10:27:26;;;;;;;11.30;4.30;;;;;;;37.34;30.87;101037.91;5111782;28;20034;-70
2021/08/13 10:29:55;;;;;;;11.65;4.40;;;;;;;37.37;31.15;101030.22;5111875;28;20043;-71
2021/08/13 10:32:23;;;;;;;9.05;4.13;;;;;;;37.11;31.29;101037.25;5111634;28;20047;-71
2021/08/13 10:34:51;;;;;;;12.63;3.90;;;;;;;37.15;30.87;101016.72;5111492;28;20036;-69
2021/08/13 10:37:19;;;;;;;14.25;4.05;;;;;;;37.26;30.62;101032.25;5111670;28;20066;-72
2021/08/13 10:39:47;;;;;;;9.10;3.60;;;;;;;37.26;30.88;101019.34;5111768;28;20520;-72
2021/08/13 10:42:22;;;;;;;10.90;3.55;;;;;;;37.36;30.79;101011.06;5111642;28;20053;-72
2021/08/13 10:45:03;;;;;;;13.27;3.63;;;;;;;37.17;31.20;101022.06;5110636;28;20032;-72
2021/08/13 10:47:36;;;;;;;14.93;4.65;;;;;;;37.31;31.13;101022.53;5111200;28;20483;-72
2021/08/13 10:50:07;;;;;;;11.82;3.92;;;;;;;37.36;30.77;101022.09;5104937;28;20040;-71
2021/08/13 10:52:36;;;;;;;8.05;4.15;;;;;;;37.10;29.72;101032.72;5111464;28;20034;-71
2021/08/13 10:55:04;;;;;;;8.25;3.55;;;;;;;37.01;30.11;101025.31;5111694;28;20040;-71
2021/08/13 10:57:58;;;;;;;13.05;4.10;;;;;;;37.03;30.20;101026.03;5111925;28;20035;-71
2021/08/13 11:00:47;;;;;;;12.27;4.25;;;;;;;36.99;30.61;101022.72;5110240;28;20441;-70
2021/08/13 11:03:21;;;;;;;8.60;3.95;;;;;;;37.05;30.17;101029.53;5115221;27;20042;-72
2021/08/13 11:05:55;;;;;;;11.30;4.32;;;;;;;37.21;30.35;101034.56;5115867;28;20380;-72
2021/08/13 11:08:23;;;;;;;8.88;3.65;;;;;;;37.27;30.87;101039.50;5115088;28;20376;-71
2021/08/13 11:10:59;;;;;;;14.07;5.13;;;;;;;37.41;30.76;101033.59;5116009;28;20038;-71
2021/08/13 11:13:26;;;;;;;10.65;3.80;;;;;;;37.36;30.09;101030.34;5114067;28;20031;-72
2021/08/13 11:15:55;;;;;;;11.20;4.20;;;;;;;37.32;29.84;101042.69;5105780;27;20036;-71
2021/08/13 11:18:32;;;;;;;17.85;4.55;;;;;;;37.34;30.62;101041.53;5129891;27;20050;-70
2021/08/13 11:21:01;;;;;;;10.88;3.85;;;;;;;37.40;30.68;101037.34;5115499;28;20040;-72
2021/08/13 11:23:29;;;;;;;9.93;3.53;;;;;;;37.21;30.37;101031.78;5115238;28;20039;-71
2021/08/13 11:26:16;;;;;;;9.57;3.72;;;;;;;37.04;30.68;101027.78;5108527;28;20050;-72
2021/08/13 11:28:44;;;;;;;10.40;4.30;;;;;;;37.09;30.52;101031.84;5115090;27;20038;-72
2021/08/13 11:31:33;;;;;;;9.13;3.90;;;;;;;37.00;30.83;101035.47;5115212;27;20056;-72